sensor_id;sensor_type;location;lat;lon;timestamp;pressure;altitude;pressure_sealevel;temperature;humidity
16777;BME280;8505;49.456;8.164;2022-12-18T00:01:27;101074.72;;;-6.92;85.10
16777;BME280;8505;49.456;8.164;2022-12-18T00:03:55;101069.81;;;-7.06;84.92
16777;BME280;8505;49.456;8.164;2022-12-18T00:06:25;101076.47;;;-6.96;84.51
16777;BME280;8505;49.456;8.164;2022-12-18T00:08:54;101063.81;;;-7.07;86.03
16777;BME280;8505;49.456;8.164;2022-12-18T00:11:24;101059.53;;;-7.06;86.34
16777;BME280;8505;49.456;8.164;2022-12-18T00:13:54;101060.50;;;-7.13;87.65
16777;BME280;8505;49.456;8.164;2022-12-18T00:16:24;101065.34;;;-6.97;87.53
16777;BME280;8505;49.456;8.164;2022-12-18T00:18:58;101066.78;;;-7.28;86.45
16777;BME280;8505;49.456;8.164;2022-12-18T00:21:27;101064.38;;;-7.39;86.59
16777;BME280;8505;49.456;8.164;2022-12-18T00:23:55;101065.72;;;-7.67;86.90
16777;BME280;8505;49.456;8.164;2022-12-18T00:26:24;101076.59;;;-7.50;87.75
16777;BME280;8505;49.456;8.164;2022-12-18T00:28:53;101070.25;;;-7.30;86.83
16777;BME280;8505;49.456;8.164;2022-12-18T00:31:23;101072.69;;;-7.72;86.87
16777;BME280;8505;49.456;8.164;2022-12-18T00:33:54;101071.19;;;-7.88;87.38
16777;BME280;8505;49.456;8.164;2022-12-18T00:36:25;101078.81;;;-7.82;87.31
16777;BME280;8505;49.456;8.164;2022-12-18T00:38:54;101076.91;;;-7.71;87.75
16777;BME280;8505;49.456;8.164;2022-12-18T00:41:23;101084.63;;;-7.69;87.02
16777;BME280;8505;49.456;8.164;2022-12-18T00:44:10;101071.66;;;-7.63;87.32
16777;BME280;8505;49.456;8.164;2022-12-18T00:46:39;101076.03;;;-7.68;87.18
16777;BME280;8505;49.456;8.164;2022-12-18T00:49:12;101069.06;;;-7.60;87.44
16777;BME280;8505;49.456;8.164;2022-12-18T00:51:40;101067.38;;;-7.64;86.93
16777;BME280;8505;49.456;8.164;2022-12-18T00:54:08;101082.50;;;-7.46;86.43
16777;BME280;8505;49.456;8.164;2022-12-18T00:56:36;101086.34;;;-7.19;86.11
16777;BME280;8505;49.456;8.164;2022-12-18T00:59:14;101079.09;;;-7.47;86.05
16777;BME280;8505;49.456;8.164;2022-12-18T01:01:42;101073.72;;;-7.33;85.38
16777;BME280;8505;49.456;8.164;2022-12-18T01:04:11;101073.81;;;-7.38;85.51
16777;BME280;8505;49.456;8.164;2022-12-18T01:06:39;101073.03;;;-7.43;85.93
16777;BME280;8505;49.456;8.164;2022-12-18T01:09:07;101077.38;;;-7.46;86.18
16777;BME280;8505;49.456;8.164;2022-12-18T01:11:34;101077.47;;;-7.51;86.67
16777;BME280;8505;49.456;8.164;2022-12-18T01:14:02;101065.25;;;-7.38;86.40
16777;BME280;8505;49.456;8.164;2022-12-18T01:16:30;101065.22;;;-7.37;86.64
16777;BME280;8505;49.456;8.164;2022-12-18T01:18:58;101068.44;;;-7.24;86.33
16777;BME280;8505;49.456;8.164;2022-12-18T01:21:27;101076.25;;;-7.28;86.18
16777;BME280;8505;49.456;8.164;2022-12-18T01:23:56;101073.88;;;-7.41;86.44
16777;BME280;8505;49.456;8.164;2022-12-18T01:26:25;101064.41;;;-7.40;86.36
16777;BME280;8505;49.456;8.164;2022-12-18T01:28:56;101066.94;;;-7.37;86.08
16777;BME280;8505;49.456;8.164;2022-12-18T01:31:26;101075.69;;;-7.47;87.96
16777;BME280;8505;49.456;8.164;2022-12-18T01:33:55;101069.44;;;-7.32;88.02
16777;BME280;8505;49.456;8.164;2022-12-18T01:36:27;101081.34;;;-6.79;88.27
16777;BME280;8505;49.456;8.164;2022-12-18T01:38:55;101078.47;;;-6.66;87.72
16777;BME280;8505;49.456;8.164;2022-12-18T01:41:26;101089.94;;;-6.80;85.80
16777;BME280;8505;49.456;8.164;2022-12-18T01:47:15;101078.56;;;-6.70;85.46
16777;BME280;8505;49.456;8.164;2022-12-18T01:49:46;101076.94;;;-6.74;86.49
16777;BME280;8505;49.456;8.164;2022-12-18T01:52:17;101072.59;;;-6.72;86.68
16777;BME280;8505;49.456;8.164;2022-12-18T01:54:46;101070.81;;;-6.69;87.84
16777;BME280;8505;49.456;8.164;2022-12-18T01:57:14;101066.91;;;-6.88;86.41
16777;BME280;8505;49.456;8.164;2022-12-18T01:59:45;101068.03;;;-7.03;86.97
16777;BME280;8505;49.456;8.164;2022-12-18T02:02:14;101076.84;;;-6.70;87.48
16777;BME280;8505;49.456;8.164;2022-12-18T02:04:43;101080.50;;;-6.80;87.28
16777;BME280;8505;49.456;8.164;2022-12-18T02:07:20;101085.94;;;-6.54;86.55
16777;BME280;8505;49.456;8.164;2022-12-18T02:09:59;101100.88;;;-6.71;86.25
16777;BME280;8505;49.456;8.164;2022-12-18T02:12:30;101101.50;;;-6.58;88.16
16777;BME280;8505;49.456;8.164;2022-12-18T02:15:07;101094.34;;;-6.44;86.49
16777;BME280;8505;49.456;8.164;2022-12-18T02:17:41;101097.44;;;-6.70;87.40
16777;BME280;8505;49.456;8.164;2022-12-18T02:20:14;101103.84;;;-6.90;87.71
16777;BME280;8505;49.456;8.164;2022-12-18T02:22:54;101086.03;;;-6.57;87.22
16777;BME280;8505;49.456;8.164;2022-12-18T02:28:30;101073.41;;;-6.29;87.36
16777;BME280;8505;49.456;8.164;2022-12-18T02:31:01;101075.81;;;-6.61;88.55
16777;BME280;8505;49.456;8.164;2022-12-18T02:33:33;101069.44;;;-6.43;88.08
16777;BME280;8505;49.456;8.164;2022-12-18T02:36:03;101072.78;;;-6.38;87.88
16777;BME280;8505;49.456;8.164;2022-12-18T02:38:32;101081.56;;;-6.08;87.39
16777;BME280;8505;49.456;8.164;2022-12-18T02:41:02;101084.06;;;-6.45;88.90
16777;BME280;8505;49.456;8.164;2022-12-18T02:43:31;101080.16;;;-6.23;87.83
16777;BME280;8505;49.456;8.164;2022-12-18T02:46:00;101087.06;;;-6.24;87.93
16777;BME280;8505;49.456;8.164;2022-12-18T02:48:49;101071.69;;;-6.28;87.43
16777;BME280;8505;49.456;8.164;2022-12-18T02:51:25;101071.28;;;-6.10;88.25
16777;BME280;8505;49.456;8.164;2022-12-18T02:53:59;101079.41;;;-6.28;88.65
16777;BME280;8505;49.456;8.164;2022-12-18T02:56:37;101074.25;;;-6.28;88.36
16777;BME280;8505;49.456;8.164;2022-12-18T02:59:11;101063.38;;;-6.41;89.33
16777;BME280;8505;49.456;8.164;2022-12-18T03:01:45;101050.34;;;-6.35;89.31
16777;BME280;8505;49.456;8.164;2022-12-18T03:04:21;101026.53;;;-6.06;87.64
16777;BME280;8505;49.456;8.164;2022-12-18T03:06:54;101036.09;;;-6.11;88.31
16777;BME280;8505;49.456;8.164;2022-12-18T03:09:27;101050.53;;;-5.68;87.39
16777;BME280;8505;49.456;8.164;2022-12-18T03:12:02;101046.91;;;-5.61;86.07
16777;BME280;8505;49.456;8.164;2022-12-18T03:14:54;101053.72;;;-5.93;86.01
16777;BME280;8505;49.456;8.164;2022-12-18T03:17:25;101055.13;;;-5.81;85.13
16777;BME280;8505;49.456;8.164;2022-12-18T03:19:56;101054.09;;;-6.09;85.86
16777;BME280;8505;49.456;8.164;2022-12-18T03:22:27;101058.63;;;-6.19;86.40
16777;BME280;8505;49.456;8.164;2022-12-18T03:24:58;101050.16;;;-6.26;86.06
16777;BME280;8505;49.456;8.164;2022-12-18T03:27:28;101055.19;;;-6.20;86.95
16777;BME280;8505;49.456;8.164;2022-12-18T03:30:03;101064.47;;;-6.13;87.32
16777;BME280;8505;49.456;8.164;2022-12-18T03:32:38;101049.50;;;-5.97;86.33
16777;BME280;8505;49.456;8.164;2022-12-18T03:35:10;101064.88;;;-6.31;87.11
16777;BME280;8505;49.456;8.164;2022-12-18T03:37:40;101056.78;;;-6.14;88.12
16777;BME280;8505;49.456;8.164;2022-12-18T03:40:08;101060.91;;;-6.45;88.30
16777;BME280;8505;49.456;8.164;2022-12-18T03:42:43;101054.38;;;-6.22;89.16
16777;BME280;8505;49.456;8.164;2022-12-18T03:45:19;101060.03;;;-6.46;88.90
16777;BME280;8505;49.456;8.164;2022-12-18T03:47:58;101062.22;;;-6.28;88.53
16777;BME280;8505;49.456;8.164;2022-12-18T03:50:34;101055.56;;;-6.36;88.76
16777;BME280;8505;49.456;8.164;2022-12-18T03:53:12;101068.38;;;-5.95;88.86
16777;BME280;8505;49.456;8.164;2022-12-18T03:55:43;101068.91;;;-5.82;87.57
16777;BME280;8505;49.456;8.164;2022-12-18T03:58:13;101064.94;;;-5.95;87.37
16777;BME280;8505;49.456;8.164;2022-12-18T04:00:45;101068.63;;;-5.70;87.03
16777;BME280;8505;49.456;8.164;2022-12-18T04:03:16;101067.34;;;-6.26;88.39
16777;BME280;8505;49.456;8.164;2022-12-18T04:05:54;101052.34;;;-5.74;87.89
16777;BME280;8505;49.456;8.164;2022-12-18T04:08:23;101060.44;;;-5.52;86.01
16777;BME280;8505;49.456;8.164;2022-12-18T04:10:52;101062.66;;;-5.74;86.40
16777;BME280;8505;49.456;8.164;2022-12-18T04:13:23;101061.50;;;-5.94;86.10
16777;BME280;8505;49.456;8.164;2022-12-18T04:15:52;101057.31;;;-5.64;86.69
16777;BME280;8505;49.456;8.164;2022-12-18T04:18:20;101055.41;;;-5.56;86.21
16777;BME280;8505;49.456;8.164;2022-12-18T04:20:48;101053.09;;;-5.33;84.78
16777;BME280;8505;49.456;8.164;2022-12-18T04:23:16;101051.63;;;-5.43;85.40
16777;BME280;8505;49.456;8.164;2022-12-18T04:25:43;101046.72;;;-5.20;84.75
16777;BME280;8505;49.456;8.164;2022-12-18T04:28:11;101051.84;;;-5.18;85.06
16777;BME280;8505;49.456;8.164;2022-12-18T04:30:39;101049.13;;;-5.14;84.70
16777;BME280;8505;49.456;8.164;2022-12-18T04:33:09;101045.84;;;-5.53;85.36
16777;BME280;8505;49.456;8.164;2022-12-18T04:35:37;101046.09;;;-5.30;85.87
16777;BME280;8505;49.456;8.164;2022-12-18T04:38:05;101045.75;;;-5.16;84.67
16777;BME280;8505;49.456;8.164;2022-12-18T04:40:33;101042.50;;;-5.24;84.09
16777;BME280;8505;49.456;8.164;2022-12-18T04:43:02;101044.16;;;-5.88;85.95
16777;BME280;8505;49.456;8.164;2022-12-18T04:45:30;101046.47;;;-5.43;85.41
16777;BME280;8505;49.456;8.164;2022-12-18T04:47:58;101037.91;;;-5.45;85.24
16777;BME280;8505;49.456;8.164;2022-12-18T04:50:27;101037.25;;;-5.53;85.44
16777;BME280;8505;49.456;8.164;2022-12-18T04:52:56;101049.72;;;-5.71;85.83
16777;BME280;8505;49.456;8.164;2022-12-18T04:55:27;101053.47;;;-6.19;87.04
16777;BME280;8505;49.456;8.164;2022-12-18T04:57:54;101056.56;;;-5.69;86.42
16777;BME280;8505;49.456;8.164;2022-12-18T05:00:22;101065.47;;;-5.47;85.74
16777;BME280;8505;49.456;8.164;2022-12-18T05:02:50;101063.75;;;-5.47;85.28
16777;BME280;8505;49.456;8.164;2022-12-18T05:05:18;101056.53;;;-5.34;85.43
16777;BME280;8505;49.456;8.164;2022-12-18T05:07:47;101059.97;;;-5.34;85.41
16777;BME280;8505;49.456;8.164;2022-12-18T05:10:15;101059.06;;;-5.66;87.32
16777;BME280;8505;49.456;8.164;2022-12-18T05:12:43;101063.50;;;-6.07;86.57
16777;BME280;8505;49.456;8.164;2022-12-18T05:15:42;101050.00;;;-5.47;87.10
16777;BME280;8505;49.456;8.164;2022-12-18T05:18:09;101054.25;;;-5.45;85.15
16777;BME280;8505;49.456;8.164;2022-12-18T05:20:37;101053.75;;;-5.60;87.30
16777;BME280;8505;49.456;8.164;2022-12-18T05:23:05;101058.09;;;-5.27;84.55
16777;BME280;8505;49.456;8.164;2022-12-18T05:25:32;101054.34;;;-5.15;84.77
16777;BME280;8505;49.456;8.164;2022-12-18T05:28:00;101050.41;;;-5.30;85.07
16777;BME280;8505;49.456;8.164;2022-12-18T05:30:27;101052.16;;;-5.64;86.45
16777;BME280;8505;49.456;8.164;2022-12-18T05:32:56;101050.22;;;-5.22;84.99
16777;BME280;8505;49.456;8.164;2022-12-18T05:35:24;101061.88;;;-5.40;84.50
16777;BME280;8505;49.456;8.164;2022-12-18T05:37:51;101062.38;;;-5.26;85.31
16777;BME280;8505;49.456;8.164;2022-12-18T05:40:19;101058.31;;;-5.36;84.80
16777;BME280;8505;49.456;8.164;2022-12-18T05:42:47;101056.91;;;-5.15;84.46
16777;BME280;8505;49.456;8.164;2022-12-18T05:45:14;101056.88;;;-5.14;83.74
16777;BME280;8505;49.456;8.164;2022-12-18T05:47:42;101050.00;;;-5.47;85.13
16777;BME280;8505;49.456;8.164;2022-12-18T05:50:11;101051.00;;;-5.19;85.51
16777;BME280;8505;49.456;8.164;2022-12-18T05:52:38;101050.84;;;-5.13;84.61
16777;BME280;8505;49.456;8.164;2022-12-18T05:55:07;101055.34;;;-5.21;85.14
16777;BME280;8505;49.456;8.164;2022-12-18T05:57:34;101050.00;;;-5.13;83.43
16777;BME280;8505;49.456;8.164;2022-12-18T06:00:03;101065.81;;;-5.61;85.73
16777;BME280;8505;49.456;8.164;2022-12-18T06:02:30;101061.69;;;-5.33;85.49
16777;BME280;8505;49.456;8.164;2022-12-18T06:04:58;101065.19;;;-5.37;85.19
16777;BME280;8505;49.456;8.164;2022-12-18T06:07:27;101066.16;;;-5.39;85.70
16777;BME280;8505;49.456;8.164;2022-12-18T06:09:55;101071.38;;;-5.42;84.89
16777;BME280;8505;49.456;8.164;2022-12-18T06:12:22;101080.53;;;-5.31;84.65
16777;BME280;8505;49.456;8.164;2022-12-18T06:14:50;101075.22;;;-5.24;84.21
16777;BME280;8505;49.456;8.164;2022-12-18T06:17:17;101082.47;;;-5.39;83.61
16777;BME280;8505;49.456;8.164;2022-12-18T06:19:45;101075.13;;;-5.55;84.80
16777;BME280;8505;49.456;8.164;2022-12-18T06:22:12;101076.34;;;-5.70;85.25
16777;BME280;8505;49.456;8.164;2022-12-18T06:24:41;101079.41;;;-5.88;84.07
16777;BME280;8505;49.456;8.164;2022-12-18T06:27:09;101080.16;;;-6.23;86.85
16777;BME280;8505;49.456;8.164;2022-12-18T06:29:37;101085.41;;;-6.28;87.64
16777;BME280;8505;49.456;8.164;2022-12-18T06:32:05;101086.72;;;-6.08;87.49
16777;BME280;8505;49.456;8.164;2022-12-18T06:34:32;101089.97;;;-5.63;85.75
16777;BME280;8505;49.456;8.164;2022-12-18T06:37:00;101096.00;;;-5.64;85.09
16777;BME280;8505;49.456;8.164;2022-12-18T06:39:28;101096.84;;;-5.64;83.66
16777;BME280;8505;49.456;8.164;2022-12-18T06:41:57;101103.38;;;-5.86;84.09
16777;BME280;8505;49.456;8.164;2022-12-18T06:44:24;101104.03;;;-6.15;85.25
16777;BME280;8505;49.456;8.164;2022-12-18T06:46:52;101102.03;;;-6.01;85.78
16777;BME280;8505;49.456;8.164;2022-12-18T06:49:19;101103.84;;;-6.47;86.05
16777;BME280;8505;49.456;8.164;2022-12-18T06:51:52;101104.56;;;-5.99;85.41
16777;BME280;8505;49.456;8.164;2022-12-18T06:54:20;101105.72;;;-6.13;85.61
16777;BME280;8505;49.456;8.164;2022-12-18T06:56:49;101109.69;;;-5.98;85.44
16777;BME280;8505;49.456;8.164;2022-12-18T06:59:18;101113.81;;;-5.91;85.72
16777;BME280;8505;49.456;8.164;2022-12-18T07:01:45;101113.09;;;-5.97;85.18
16777;BME280;8505;49.456;8.164;2022-12-18T07:04:13;101119.34;;;-6.06;84.73
16777;BME280;8505;49.456;8.164;2022-12-18T07:06:41;101123.06;;;-5.82;84.48
16777;BME280;8505;49.456;8.164;2022-12-18T07:09:08;101112.06;;;-5.89;84.42
16777;BME280;8505;49.456;8.164;2022-12-18T07:11:36;101113.09;;;-5.97;82.97
16777;BME280;8505;49.456;8.164;2022-12-18T07:14:04;101109.78;;;-6.02;83.98
16777;BME280;8505;49.456;8.164;2022-12-18T07:16:33;101114.88;;;-5.99;85.04
16777;BME280;8505;49.456;8.164;2022-12-18T07:19:00;101113.22;;;-6.42;86.07
16777;BME280;8505;49.456;8.164;2022-12-18T07:21:28;101109.34;;;-6.64;86.40
16777;BME280;8505;49.456;8.164;2022-12-18T07:23:56;101106.75;;;-6.21;85.20
16777;BME280;8505;49.456;8.164;2022-12-18T07:26:23;101108.78;;;-5.95;83.30
16777;BME280;8505;49.456;8.164;2022-12-18T07:28:55;101112.34;;;-6.01;83.50
16777;BME280;8505;49.456;8.164;2022-12-18T07:31:24;101119.53;;;-5.80;83.43
16777;BME280;8505;49.456;8.164;2022-12-18T07:33:54;101121.16;;;-6.11;84.63
16777;BME280;8505;49.456;8.164;2022-12-18T07:36:22;101128.25;;;-6.22;83.79
16777;BME280;8505;49.456;8.164;2022-12-18T07:38:50;101131.50;;;-5.76;83.24
16777;BME280;8505;49.456;8.164;2022-12-18T07:41:19;101127.53;;;-5.89;83.07
16777;BME280;8505;49.456;8.164;2022-12-18T07:43:47;101142.19;;;-5.91;83.13
16777;BME280;8505;49.456;8.164;2022-12-18T07:46:15;101147.88;;;-5.77;82.22
16777;BME280;8505;49.456;8.164;2022-12-18T07:48:44;101149.88;;;-5.88;82.29
16777;BME280;8505;49.456;8.164;2022-12-18T07:51:17;101150.78;;;-5.92;82.73
16777;BME280;8505;49.456;8.164;2022-12-18T07:53:45;101147.78;;;-5.74;82.46
16777;BME280;8505;49.456;8.164;2022-12-18T07:56:18;101149.69;;;-5.82;82.55
16777;BME280;8505;49.456;8.164;2022-12-18T07:58:56;101157.47;;;-5.83;82.11
16777;BME280;8505;49.456;8.164;2022-12-18T08:01:24;101147.03;;;-5.79;82.45
16777;BME280;8505;49.456;8.164;2022-12-18T08:03:52;101152.03;;;-5.71;81.64
16777;BME280;8505;49.456;8.164;2022-12-18T08:06:24;101151.88;;;-5.63;82.32
16777;BME280;8505;49.456;8.164;2022-12-18T08:08:52;101141.81;;;-5.74;82.43
16777;BME280;8505;49.456;8.164;2022-12-18T08:11:21;101144.50;;;-5.80;82.23
16777;BME280;8505;49.456;8.164;2022-12-18T08:13:49;101151.28;;;-5.75;82.13
16777;BME280;8505;49.456;8.164;2022-12-18T08:16:17;101150.91;;;-5.59;82.26
16777;BME280;8505;49.456;8.164;2022-12-18T08:18:46;101153.63;;;-5.65;82.24
16777;BME280;8505;49.456;8.164;2022-12-18T08:21:16;101151.69;;;-5.56;82.17
16777;BME280;8505;49.456;8.164;2022-12-18T08:23:48;101152.19;;;-5.79;82.37
16777;BME280;8505;49.456;8.164;2022-12-18T08:26:17;101145.84;;;-5.64;82.05
16777;BME280;8505;49.456;8.164;2022-12-18T08:28:46;101135.88;;;-5.42;81.65
16777;BME280;8505;49.456;8.164;2022-12-18T08:31:14;101135.66;;;-5.33;80.68
16777;BME280;8505;49.456;8.164;2022-12-18T08:33:42;101139.13;;;-5.34;80.63
16777;BME280;8505;49.456;8.164;2022-12-18T08:36:10;101135.81;;;-5.39;81.10
16777;BME280;8505;49.456;8.164;2022-12-18T08:38:38;101126.16;;;-5.31;80.98
16777;BME280;8505;49.456;8.164;2022-12-18T08:41:10;101117.94;;;-5.47;80.93
16777;BME280;8505;49.456;8.164;2022-12-18T08:43:38;101116.16;;;-5.45;81.30
16777;BME280;8505;49.456;8.164;2022-12-18T08:46:24;101114.28;;;-5.38;81.55
16777;BME280;8505;49.456;8.164;2022-12-18T08:48:54;101107.44;;;-5.39;81.37
16777;BME280;8505;49.456;8.164;2022-12-18T08:51:21;101110.75;;;-5.34;80.57
16777;BME280;8505;49.456;8.164;2022-12-18T08:53:49;101107.28;;;-5.33;81.24
16777;BME280;8505;49.456;8.164;2022-12-18T08:56:18;101108.81;;;-5.26;80.69
16777;BME280;8505;49.456;8.164;2022-12-18T08:58:46;101105.59;;;-5.36;80.29
16777;BME280;8505;49.456;8.164;2022-12-18T09:01:13;101105.16;;;-5.51;81.29
16777;BME280;8505;49.456;8.164;2022-12-18T09:03:41;101099.97;;;-5.50;81.68
16777;BME280;8505;49.456;8.164;2022-12-18T09:06:13;101102.28;;;-5.39;82.12
16777;BME280;8505;49.456;8.164;2022-12-18T09:08:42;101108.09;;;-5.31;81.58
16777;BME280;8505;49.456;8.164;2022-12-18T09:11:21;101120.06;;;-5.28;80.33
16777;BME280;8505;49.456;8.164;2022-12-18T09:13:50;101112.91;;;-5.17;80.59
16777;BME280;8505;49.456;8.164;2022-12-18T09:16:18;101100.06;;;-5.19;80.65
16777;BME280;8505;49.456;8.164;2022-12-18T09:18:47;101104.25;;;-5.15;79.44
16777;BME280;8505;49.456;8.164;2022-12-18T09:21:18;101116.19;;;-5.46;80.53
16777;BME280;8505;49.456;8.164;2022-12-18T09:23:49;101116.75;;;-5.34;81.18
16777;BME280;8505;49.456;8.164;2022-12-18T09:26:16;101115.38;;;-5.48;80.45
16777;BME280;8505;49.456;8.164;2022-12-18T09:28:45;101114.16;;;-5.00;80.16
16777;BME280;8505;49.456;8.164;2022-12-18T09:31:17;101116.22;;;-4.80;79.10
16777;BME280;8505;49.456;8.164;2022-12-18T09:33:45;101121.59;;;-4.88;80.02
16777;BME280;8505;49.456;8.164;2022-12-18T09:36:15;101126.03;;;-4.93;78.74
16777;BME280;8505;49.456;8.164;2022-12-18T09:38:43;101127.13;;;-5.01;78.52
16777;BME280;8505;49.456;8.164;2022-12-18T09:41:24;101136.72;;;-5.06;79.50
16777;BME280;8505;49.456;8.164;2022-12-18T09:44:00;101148.78;;;-5.07;79.16
16777;BME280;8505;49.456;8.164;2022-12-18T09:46:32;101142.97;;;-5.15;80.47
16777;BME280;8505;49.456;8.164;2022-12-18T09:49:05;101143.88;;;-4.83;79.18
16777;BME280;8505;49.456;8.164;2022-12-18T09:51:37;101154.03;;;-5.10;79.60
16777;BME280;8505;49.456;8.164;2022-12-18T09:54:11;101153.06;;;-4.73;78.90
16777;BME280;8505;49.456;8.164;2022-12-18T09:56:42;101147.34;;;-4.84;79.46
16777;BME280;8505;49.456;8.164;2022-12-18T09:59:18;101142.59;;;-4.67;79.02
16777;BME280;8505;49.456;8.164;2022-12-18T10:01:48;101142.69;;;-4.70;78.36
16777;BME280;8505;49.456;8.164;2022-12-18T10:04:16;101142.84;;;-4.76;79.47
16777;BME280;8505;49.456;8.164;2022-12-18T10:06:47;101152.09;;;-4.37;78.24
16777;BME280;8505;49.456;8.164;2022-12-18T10:09:27;101150.22;;;-4.32;77.22
16777;BME280;8505;49.456;8.164;2022-12-18T10:12:04;101151.91;;;-4.31;77.13
16777;BME280;8505;49.456;8.164;2022-12-18T10:14:43;101152.41;;;-4.49;77.16
16777;BME280;8505;49.456;8.164;2022-12-18T10:17:20;101152.53;;;-4.21;77.09
16777;BME280;8505;49.456;8.164;2022-12-18T10:19:55;101144.13;;;-4.29;76.19
16777;BME280;8505;49.456;8.164;2022-12-18T10:22:35;101134.59;;;-4.58;78.08
16777;BME280;8505;49.456;8.164;2022-12-18T10:25:15;101139.25;;;-4.40;77.02
16777;BME280;8505;49.456;8.164;2022-12-18T10:27:45;101145.78;;;-4.58;77.09
16777;BME280;8505;49.456;8.164;2022-12-18T10:30:16;101140.34;;;-4.49;77.77
16777;BME280;8505;49.456;8.164;2022-12-18T10:32:44;101131.72;;;-4.18;77.49
16777;BME280;8505;49.456;8.164;2022-12-18T10:35:16;101123.25;;;-4.23;76.29
16777;BME280;8505;49.456;8.164;2022-12-18T10:38:07;101107.97;;;-4.31;77.91
16777;BME280;8505;49.456;8.164;2022-12-18T10:40:50;101116.63;;;-4.02;77.02
16777;BME280;8505;49.456;8.164;2022-12-18T10:43:25;101104.25;;;-4.21;77.52
16777;BME280;8505;49.456;8.164;2022-12-18T10:46:12;101117.63;;;-3.79;76.63
16777;BME280;8505;49.456;8.164;2022-12-18T10:48:51;101122.41;;;-3.67;75.78
16777;BME280;8505;49.456;8.164;2022-12-18T10:51:21;101126.88;;;-3.99;76.20
16777;BME280;8505;49.456;8.164;2022-12-18T10:53:56;101122.88;;;-4.39;77.05
16777;BME280;8505;49.456;8.164;2022-12-18T10:56:26;101128.59;;;-4.29;77.90
16777;BME280;8505;49.456;8.164;2022-12-18T10:58:59;101137.09;;;-4.55;78.48
16777;BME280;8505;49.456;8.164;2022-12-18T11:01:31;101147.25;;;-4.49;78.00
16777;BME280;8505;49.456;8.164;2022-12-18T11:04:16;101143.09;;;-4.55;78.80
16777;BME280;8505;49.456;8.164;2022-12-18T11:06:56;101145.69;;;-4.55;78.60
16777;BME280;8505;49.456;8.164;2022-12-18T11:09:26;101145.28;;;-5.06;80.89
16777;BME280;8505;49.456;8.164;2022-12-18T11:11:56;101143.25;;;-4.61;81.12
16777;BME280;8505;49.456;8.164;2022-12-18T11:14:27;101135.88;;;-4.13;79.39
16777;BME280;8505;49.456;8.164;2022-12-18T11:16:58;101133.41;;;-3.88;78.83
16777;BME280;8505;49.456;8.164;2022-12-18T11:19:52;101127.03;;;-4.66;79.54
16777;BME280;8505;49.456;8.164;2022-12-18T11:22:24;101122.75;;;-4.36;80.04
16777;BME280;8505;49.456;8.164;2022-12-18T11:24:56;101118.75;;;-4.46;78.44
16777;BME280;8505;49.456;8.164;2022-12-18T11:27:49;101123.50;;;-4.01;78.24
16777;BME280;8505;49.456;8.164;2022-12-18T11:30:22;101119.16;;;-4.30;78.74
16777;BME280;8505;49.456;8.164;2022-12-18T11:32:55;101121.13;;;-4.09;78.04
16777;BME280;8505;49.456;8.164;2022-12-18T11:35:34;101104.66;;;-4.07;78.55
16777;BME280;8505;49.456;8.164;2022-12-18T11:38:20;101110.31;;;-3.94;77.19
16777;BME280;8505;49.456;8.164;2022-12-18T11:40:52;101108.63;;;-4.24;77.78
16777;BME280;8505;49.456;8.164;2022-12-18T11:43:26;101101.81;;;-3.97;77.65
16777;BME280;8505;49.456;8.164;2022-12-18T11:45:59;101104.66;;;-4.07;77.53
16777;BME280;8505;49.456;8.164;2022-12-18T11:48:33;101098.72;;;-3.81;77.92
16777;BME280;8505;49.456;8.164;2022-12-18T11:51:04;101096.22;;;-3.84;77.97
16777;BME280;8505;49.456;8.164;2022-12-18T11:53:32;101105.81;;;-3.87;76.90
16777;BME280;8505;49.456;8.164;2022-12-18T11:56:12;101102.81;;;-4.01;77.71
16777;BME280;8505;49.456;8.164;2022-12-18T11:58:46;101102.25;;;-3.83;77.67
16777;BME280;8505;49.456;8.164;2022-12-18T12:01:22;101094.31;;;-4.07;78.75
16777;BME280;8505;49.456;8.164;2022-12-18T12:04:20;101078.53;;;-3.97;78.17
16777;BME280;8505;49.456;8.164;2022-12-18T12:06:59;101081.38;;;-3.77;77.78
16777;BME280;8505;49.456;8.164;2022-12-18T12:09:36;101082.75;;;-3.67;78.07
16777;BME280;8505;49.456;8.164;2022-12-18T12:12:22;101075.22;;;-3.75;76.81
16777;BME280;8505;49.456;8.164;2022-12-18T12:14:58;101080.50;;;-3.78;77.83
16777;BME280;8505;49.456;8.164;2022-12-18T12:17:35;101093.56;;;-3.54;77.32
16777;BME280;8505;49.456;8.164;2022-12-18T12:20:13;101092.72;;;-3.55;76.95
16777;BME280;8505;49.456;8.164;2022-12-18T12:22:48;101088.31;;;-3.79;76.46
16777;BME280;8505;49.456;8.164;2022-12-18T12:25:35;101084.03;;;-3.52;76.58
16777;BME280;8505;49.456;8.164;2022-12-18T12:28:15;101078.84;;;-3.80;76.65
16777;BME280;8505;49.456;8.164;2022-12-18T12:30:54;101072.28;;;-3.90;77.64
16777;BME280;8505;49.456;8.164;2022-12-18T12:33:32;101078.78;;;-4.07;78.58
16777;BME280;8505;49.456;8.164;2022-12-18T12:36:12;101076.47;;;-3.86;78.85
16777;BME280;8505;49.456;8.164;2022-12-18T12:38:46;101072.59;;;-3.73;77.63
16777;BME280;8505;49.456;8.164;2022-12-18T12:41:20;101074.78;;;-3.61;78.73
16777;BME280;8505;49.456;8.164;2022-12-18T12:44:12;101060.38;;;-3.42;77.11
16777;BME280;8505;49.456;8.164;2022-12-18T12:46:43;101069.00;;;-3.69;77.29
16777;BME280;8505;49.456;8.164;2022-12-18T12:49:15;101064.69;;;-3.69;77.89
16777;BME280;8505;49.456;8.164;2022-12-18T12:51:49;101061.66;;;-3.55;78.64
16777;BME280;8505;49.456;8.164;2022-12-18T12:54:25;101049.19;;;-3.44;77.69
16777;BME280;8505;49.456;8.164;2022-12-18T12:57:00;101049.19;;;-3.44;78.11
16777;BME280;8505;49.456;8.164;2022-12-18T12:59:35;101037.81;;;-3.13;76.47
16777;BME280;8505;49.456;8.164;2022-12-18T13:02:18;101036.94;;;-2.89;76.08
16777;BME280;8505;49.456;8.164;2022-12-18T13:04:56;101042.44;;;-3.48;76.40
16777;BME280;8505;49.456;8.164;2022-12-18T13:07:31;101037.81;;;-3.13;76.21
16777;BME280;8505;49.456;8.164;2022-12-18T13:10:13;101032.09;;;-3.23;76.72
16777;BME280;8505;49.456;8.164;2022-12-18T13:12:52;101030.69;;;-3.58;78.76
16777;BME280;8505;49.456;8.164;2022-12-18T13:15:31;101018.53;;;-3.56;78.37
16777;BME280;8505;49.456;8.164;2022-12-18T13:18:20;101015.59;;;-3.45;76.77
16777;BME280;8505;49.456;8.164;2022-12-18T13:20:50;101014.38;;;-3.60;79.04
16777;BME280;8505;49.456;8.164;2022-12-18T13:23:33;101020.59;;;-3.92;80.00
16777;BME280;8505;49.456;8.164;2022-12-18T13:26:30;101011.31;;;-3.71;80.35
16777;BME280;8505;49.456;8.164;2022-12-18T13:28:59;101011.34;;;-3.46;79.69
16777;BME280;8505;49.456;8.164;2022-12-18T13:34:35;101010.97;;;-3.36;78.39